sensor_id;sensor_type;location;lat;lon;timestamp;P1;P2;P0
49343;PMS5003;35210;41.606;-87.602;2024-02-21T00:01:41;21.00;19.00;14.00
49343;PMS5003;35210;41.606;-87.602;2024-02-21T00:04:09;16.80;16.00;9.40
49343;PMS5003;35210;41.606;-87.602;2024-02-21T00:06:37;19.80;18.00;14.60
49343;PMS5003;35210;41.606;-87.602;2024-02-21T00:09:05;27.60;20.40;13.80
49343;PMS5003;35210;41.606;-87.602;2024-02-21T00:11:36;22.20;18.60;14.20
49343;PMS5003;35210;41.606;-87.602;2024-02-21T00:14:07;21.60;18.00;13.00
49343;PMS5003;35210;41.606;-87.602;2024-02-21T00:16:35;24.00;18.80;14.00
49343;PMS5003;35210;41.606;-87.602;2024-02-21T00:19:03;18.80;16.80;9.80
49343;PMS5003;35210;41.606;-87.602;2024-02-21T00:21:31;23.20;18.80;13.00
49343;PMS5003;35210;41.606;-87.602;2024-02-21T00:23:59;15.80;14.60;8.00
49343;PMS5003;35210;41.606;-87.602;2024-02-21T00:26:27;17.40;15.40;10.40
49343;PMS5003;35210;41.606;-87.602;2024-02-21T00:28:57;20.00;18.20;11.60
49343;PMS5003;35210;41.606;-87.602;2024-02-21T00:31:25;20.80;18.80;13.80
49343;PMS5003;35210;41.606;-87.602;2024-02-21T00:33:53;22.00;21.00;15.60
49343;PMS5003;35210;41.606;-87.602;2024-02-21T00:36:22;21.60;21.40;14.00
49343;PMS5003;35210;41.606;-87.602;2024-02-21T00:38:50;18.40;18.40;14.00
49343;PMS5003;35210;41.606;-87.602;2024-02-21T00:41:18;18.00;17.20;13.40
49343;PMS5003;35210;41.606;-87.602;2024-02-21T00:43:46;17.00;16.00;12.80
49343;PMS5003;35210;41.606;-87.602;2024-02-21T00:46:17;19.80;18.20;12.40
49343;PMS5003;35210;41.606;-87.602;2024-02-21T00:48:45;20.20;20.20;13.80
49343;PMS5003;35210;41.606;-87.602;2024-02-21T00:51:13;18.20;16.40;12.80
49343;PMS5003;35210;41.606;-87.602;2024-02-21T00:53:42;20.00;17.00;12.60
49343;PMS5003;35210;41.606;-87.602;2024-02-21T00:56:10;18.60;17.00;12.80
49343;PMS5003;35210;41.606;-87.602;2024-02-21T00:58:38;14.20;13.80;8.80
49343;PMS5003;35210;41.606;-87.602;2024-02-21T01:01:06;17.20;17.20;12.40
49343;PMS5003;35210;41.606;-87.602;2024-02-21T01:03:36;18.80;18.80;13.20
49343;PMS5003;35210;41.606;-87.602;2024-02-21T01:06:06;15.60;15.60;10.80
49343;PMS5003;35210;41.606;-87.602;2024-02-21T01:08:34;17.40;15.80;11.60
49343;PMS5003;35210;41.606;-87.602;2024-02-21T01:11:04;18.40;15.80;12.00
49343;PMS5003;35210;41.606;-87.602;2024-02-21T01:13:32;17.80;17.00;11.40
49343;PMS5003;35210;41.606;-87.602;2024-02-21T01:16:00;13.40;13.40;9.40
49343;PMS5003;35210;41.606;-87.602;2024-02-21T01:18:28;17.60;15.20;11.80
49343;PMS5003;35210;41.606;-87.602;2024-02-21T01:21:00;20.20;16.00;11.40
49343;PMS5003;35210;41.606;-87.602;2024-02-21T01:23:32;10.60;10.20;8.20
49343;PMS5003;35210;41.606;-87.602;2024-02-21T01:26:00;19.20;17.40;12.00
49343;PMS5003;35210;41.606;-87.602;2024-02-21T01:28:28;14.00;9.00;8.20
49343;PMS5003;35210;41.606;-87.602;2024-02-21T01:30:56;17.40;14.20;10.60
49343;PMS5003;35210;41.606;-87.602;2024-02-21T01:33:25;19.00;15.80;11.60
49343;PMS5003;35210;41.606;-87.602;2024-02-21T01:35:53;16.60;13.80;9.80
49343;PMS5003;35210;41.606;-87.602;2024-02-21T01:38:22;17.20;14.20;9.20
49343;PMS5003;35210;41.606;-87.602;2024-02-21T01:40:50;15.20;13.40;8.80
49343;PMS5003;35210;41.606;-87.602;2024-02-21T01:43:19;20.60;17.20;11.00
49343;PMS5003;35210;41.606;-87.602;2024-02-21T01:45:48;13.20;12.00;9.20
49343;PMS5003;35210;41.606;-87.602;2024-02-21T01:48:17;19.00;14.60;9.40
49343;PMS5003;35210;41.606;-87.602;2024-02-21T01:50:46;16.80;12.40;9.80
49343;PMS5003;35210;41.606;-87.602;2024-02-21T01:53:16;15.80;14.20;10.20
49343;PMS5003;35210;41.606;-87.602;2024-02-21T01:55:50;14.40;12.20;6.20
49343;PMS5003;35210;41.606;-87.602;2024-02-21T01:58:19;17.40;17.40;9.80
49343;PMS5003;35210;41.606;-87.602;2024-02-21T02:00:47;19.00;16.00;11.20
49343;PMS5003;35210;41.606;-87.602;2024-02-21T02:03:16;15.80;13.40;10.20
49343;PMS5003;35210;41.606;-87.602;2024-02-21T02:05:44;17.80;17.00;11.20
49343;PMS5003;35210;41.606;-87.602;2024-02-21T02:08:13;17.80;16.40;11.00
49343;PMS5003;35210;41.606;-87.602;2024-02-21T02:10:42;14.60;14.00;8.00
49343;PMS5003;35210;41.606;-87.602;2024-02-21T02:13:12;14.00;14.00;11.00
49343;PMS5003;35210;41.606;-87.602;2024-02-21T02:15:40;15.00;13.20;9.20
49343;PMS5003;35210;41.606;-87.602;2024-02-21T02:18:09;19.40;16.40;11.40
49343;PMS5003;35210;41.606;-87.602;2024-02-21T02:20:38;20.60;18.40;12.20
49343;PMS5003;35210;41.606;-87.602;2024-02-21T02:23:07;17.80;16.60;10.60
49343;PMS5003;35210;41.606;-87.602;2024-02-21T02:25:39;16.80;15.80;11.00
49343;PMS5003;35210;41.606;-87.602;2024-02-21T02:28:07;21.20;17.40;11.20
49343;PMS5003;35210;41.606;-87.602;2024-02-21T02:30:36;17.40;14.00;11.80
49343;PMS5003;35210;41.606;-87.602;2024-02-21T02:33:04;19.00;17.00;11.20
49343;PMS5003;35210;41.606;-87.602;2024-02-21T02:35:32;14.00;12.80;9.20
49343;PMS5003;35210;41.606;-87.602;2024-02-21T02:38:01;15.80;15.80;12.00
49343;PMS5003;35210;41.606;-87.602;2024-02-21T02:40:31;26.00;19.20;11.80
49343;PMS5003;35210;41.606;-87.602;2024-02-21T02:43:03;32.40;28.60;18.00
49343;PMS5003;35210;41.606;-87.602;2024-02-21T02:45:31;24.20;19.40;12.80
49343;PMS5003;35210;41.606;-87.602;2024-02-21T02:47:59;22.00;18.40;13.00
49343;PMS5003;35210;41.606;-87.602;2024-02-21T02:50:27;20.60;19.40;14.80
49343;PMS5003;35210;41.606;-87.602;2024-02-21T02:52:55;28.20;22.40;14.00
49343;PMS5003;35210;41.606;-87.602;2024-02-21T02:55:23;20.20;19.80;13.40
49343;PMS5003;35210;41.606;-87.602;2024-02-21T02:57:51;20.00;18.60;13.60
49343;PMS5003;35210;41.606;-87.602;2024-02-21T03:00:21;20.60;20.20;14.80
49343;PMS5003;35210;41.606;-87.602;2024-02-21T03:02:50;18.60;16.80;11.60
49343;PMS5003;35210;41.606;-87.602;2024-02-21T03:05:18;15.80;14.20;10.00
49343;PMS5003;35210;41.606;-87.602;2024-02-21T03:07:47;18.80;18.80;13.80
49343;PMS5003;35210;41.606;-87.602;2024-02-21T03:10:16;17.80;17.20;13.00
49343;PMS5003;35210;41.606;-87.602;2024-02-21T03:12:44;15.60;13.60;9.00
49343;PMS5003;35210;41.606;-87.602;2024-02-21T03:15:12;19.60;16.00;10.80
49343;PMS5003;35210;41.606;-87.602;2024-02-21T03:17:42;17.20;17.00;10.20
49343;PMS5003;35210;41.606;-87.602;2024-02-21T03:20:11;26.40;19.00;13.20
49343;PMS5003;35210;41.606;-87.602;2024-02-21T03:22:39;19.60;19.60;12.00
49343;PMS5003;35210;41.606;-87.602;2024-02-21T03:25:08;18.60;17.40;11.40
49343;PMS5003;35210;41.606;-87.602;2024-02-21T03:27:38;16.00;15.20;10.40
49343;PMS5003;35210;41.606;-87.602;2024-02-21T03:30:06;20.40;17.40;12.20
49343;PMS5003;35210;41.606;-87.602;2024-02-21T03:32:35;11.00;9.60;8.00
49343;PMS5003;35210;41.606;-87.602;2024-02-21T03:35:06;18.00;16.00;10.20
49343;PMS5003;35210;41.606;-87.602;2024-02-21T03:37:35;9.60;7.80;6.00
49343;PMS5003;35210;41.606;-87.602;2024-02-21T03:40:05;16.20;16.00;10.00
49343;PMS5003;35210;41.606;-87.602;2024-02-21T03:42:35;13.40;11.20;6.20
49343;PMS5003;35210;41.606;-87.602;2024-02-21T03:45:03;17.60;14.20;10.00
49343;PMS5003;35210;41.606;-87.602;2024-02-21T03:47:32;13.80;13.00;9.60
49343;PMS5003;35210;41.606;-87.602;2024-02-21T03:50:00;12.60;12.20;7.80
49343;PMS5003;35210;41.606;-87.602;2024-02-21T03:52:30;16.00;15.00;9.20
49343;PMS5003;35210;41.606;-87.602;2024-02-21T03:54:58;13.80;13.60;9.00
49343;PMS5003;35210;41.606;-87.602;2024-02-21T03:57:26;12.40;11.00;8.40
49343;PMS5003;35210;41.606;-87.602;2024-02-21T03:59:55;16.40;14.80;10.00
49343;PMS5003;35210;41.606;-87.602;2024-02-21T04:02:23;17.20;14.20;10.00
49343;PMS5003;35210;41.606;-87.602;2024-02-21T04:04:51;13.00;11.40;9.00
49343;PMS5003;35210;41.606;-87.602;2024-02-21T04:07:19;18.80;17.00;10.20
49343;PMS5003;35210;41.606;-87.602;2024-02-21T04:09:48;12.00;11.60;9.20
49343;PMS5003;35210;41.606;-87.602;2024-02-21T04:12:16;13.40;13.40;8.80
49343;PMS5003;35210;41.606;-87.602;2024-02-21T04:14:44;13.80;13.40;9.20
49343;PMS5003;35210;41.606;-87.602;2024-02-21T04:17:12;12.60;12.60;9.00
49343;PMS5003;35210;41.606;-87.602;2024-02-21T04:19:41;15.20;15.00;9.80
49343;PMS5003;35210;41.606;-87.602;2024-02-21T04:22:09;13.20;12.40;9.00
49343;PMS5003;35210;41.606;-87.602;2024-02-21T04:24:37;15.20;11.80;10.00
49343;PMS5003;35210;41.606;-87.602;2024-02-21T04:27:06;16.60;12.60;9.60
49343;PMS5003;35210;41.606;-87.602;2024-02-21T04:29:34;19.00;16.00;10.75
49343;PMS5003;35210;41.606;-87.602;2024-02-21T04:32:02;16.20;15.00;9.40
49343;PMS5003;35210;41.606;-87.602;2024-02-21T04:34:31;14.80;14.80;9.00
49343;PMS5003;35210;41.606;-87.602;2024-02-21T04:36:59;16.20;14.20;9.80
49343;PMS5003;35210;41.606;-87.602;2024-02-21T04:39:27;18.00;15.60;10.00
49343;PMS5003;35210;41.606;-87.602;2024-02-21T04:41:55;15.00;11.40;7.40
49343;PMS5003;35210;41.606;-87.602;2024-02-21T04:44:25;9.60;9.20;7.00
49343;PMS5003;35210;41.606;-87.602;2024-02-21T04:46:53;17.40;14.20;10.40
49343;PMS5003;35210;41.606;-87.602;2024-02-21T04:49:21;14.00;12.40;9.20
49343;PMS5003;35210;41.606;-87.602;2024-02-21T04:51:49;16.40;12.00;8.00
49343;PMS5003;35210;41.606;-87.602;2024-02-21T04:54:17;15.00;15.00;10.80
49343;PMS5003;35210;41.606;-87.602;2024-02-21T04:56:45;14.80;13.00;9.00
49343;PMS5003;35210;41.606;-87.602;2024-02-21T04:59:13;15.20;15.20;9.80
49343;PMS5003;35210;41.606;-87.602;2024-02-21T05:01:43;16.80;13.80;9.40
49343;PMS5003;35210;41.606;-87.602;2024-02-21T05:04:11;16.40;13.60;9.00
49343;PMS5003;35210;41.606;-87.602;2024-02-21T05:06:39;20.40;15.60;11.00
49343;PMS5003;35210;41.606;-87.602;2024-02-21T05:09:07;10.60;10.40;8.00
49343;PMS5003;35210;41.606;-87.602;2024-02-21T05:11:37;14.60;13.00;9.40
49343;PMS5003;35210;41.606;-87.602;2024-02-21T05:14:05;16.00;15.40;10.00
49343;PMS5003;35210;41.606;-87.602;2024-02-21T05:16:34;12.60;10.00;9.00
49343;PMS5003;35210;41.606;-87.602;2024-02-21T05:19:03;19.80;14.40;10.00
49343;PMS5003;35210;41.606;-87.602;2024-02-21T05:21:31;14.20;13.80;9.20
49343;PMS5003;35210;41.606;-87.602;2024-02-21T05:23:59;17.80;15.20;9.60
49343;PMS5003;35210;41.606;-87.602;2024-02-21T05:26:27;17.00;14.40;8.20
49343;PMS5003;35210;41.606;-87.602;2024-02-21T05:28:56;17.00;12.80;8.20
49343;PMS5003;35210;41.606;-87.602;2024-02-21T05:31:24;11.20;10.00;7.60
49343;PMS5003;35210;41.606;-87.602;2024-02-21T05:33:53;17.40;13.00;7.80
49343;PMS5003;35210;41.606;-87.602;2024-02-21T05:36:22;12.20;11.00;9.00
49343;PMS5003;35210;41.606;-87.602;2024-02-21T05:38:50;14.80;12.80;9.40
49343;PMS5003;35210;41.606;-87.602;2024-02-21T05:41:18;11.20;10.20;8.00
49343;PMS5003;35210;41.606;-87.602;2024-02-21T05:43:46;16.00;16.00;9.60
49343;PMS5003;35210;41.606;-87.602;2024-02-21T05:46:18;17.20;16.00;10.00
49343;PMS5003;35210;41.606;-87.602;2024-02-21T05:48:46;16.80;16.80;10.00
49343;PMS5003;35210;41.606;-87.602;2024-02-21T05:51:14;15.00;14.20;8.60
49343;PMS5003;35210;41.606;-87.602;2024-02-21T05:53:44;18.00;13.80;9.40
49343;PMS5003;35210;41.606;-87.602;2024-02-21T05:56:12;14.20;13.00;7.80
49343;PMS5003;35210;41.606;-87.602;2024-02-21T05:58:41;14.80;14.80;9.80
49343;PMS5003;35210;41.606;-87.602;2024-02-21T06:01:09;18.00;15.20;10.00
49343;PMS5003;35210;41.606;-87.602;2024-02-21T06:03:37;15.20;11.60;8.80
49343;PMS5003;35210;41.606;-87.602;2024-02-21T06:06:05;14.40;12.20;7.00
49343;PMS5003;35210;41.606;-87.602;2024-02-21T06:08:33;13.80;12.40;9.60
49343;PMS5003;35210;41.606;-87.602;2024-02-21T06:11:03;13.20;12.60;9.60
49343;PMS5003;35210;41.606;-87.602;2024-02-21T06:13:31;16.40;15.20;9.40
49343;PMS5003;35210;41.606;-87.602;2024-02-21T06:15:59;14.80;14.80;9.80
49343;PMS5003;35210;41.606;-87.602;2024-02-21T06:18:27;13.60;11.60;8.80
49343;PMS5003;35210;41.606;-87.602;2024-02-21T06:20:55;20.20;15.60;10.40
49343;PMS5003;35210;41.606;-87.602;2024-02-21T06:23:23;16.00;15.20;9.60
49343;PMS5003;35210;41.606;-87.602;2024-02-21T06:25:51;20.20;17.00;9.40
49343;PMS5003;35210;41.606;-87.602;2024-02-21T06:28:21;18.60;16.00;10.80
49343;PMS5003;35210;41.606;-87.602;2024-02-21T06:30:49;19.80;15.00;10.20
49343;PMS5003;35210;41.606;-87.602;2024-02-21T06:33:17;18.00;15.60;10.00
49343;PMS5003;35210;41.606;-87.602;2024-02-21T06:35:48;17.40;16.00;9.00
49343;PMS5003;35210;41.606;-87.602;2024-02-21T06:38:18;18.60;16.00;9.80
49343;PMS5003;35210;41.606;-87.602;2024-02-21T06:40:46;15.40;14.60;9.20
49343;PMS5003;35210;41.606;-87.602;2024-02-21T06:43:18;16.00;15.00;10.20
49343;PMS5003;35210;41.606;-87.602;2024-02-21T06:45:49;16.20;13.40;9.20
49343;PMS5003;35210;41.606;-87.602;2024-02-21T06:48:17;16.40;13.40;8.40
49343;PMS5003;35210;41.606;-87.602;2024-02-21T06:50:45;14.60;12.40;9.00
49343;PMS5003;35210;41.606;-87.602;2024-02-21T06:53:13;12.00;10.20;8.80
49343;PMS5003;35210;41.606;-87.602;2024-02-21T06:55:41;13.20;11.40;9.00
49343;PMS5003;35210;41.606;-87.602;2024-02-21T06:58:09;13.40;10.80;7.20
49343;PMS5003;35210;41.606;-87.602;2024-02-21T07:00:38;16.40;10.80;7.20
49343;PMS5003;35210;41.606;-87.602;2024-02-21T07:03:08;11.20;11.20;9.00
49343;PMS5003;35210;41.606;-87.602;2024-02-21T07:05:36;16.00;15.80;9.80
49343;PMS5003;35210;41.606;-87.602;2024-02-21T07:08:04;16.80;14.20;8.60
49343;PMS5003;35210;41.606;-87.602;2024-02-21T07:10:33;14.80;14.20;9.40
49343;PMS5003;35210;41.606;-87.602;2024-02-21T07:13:01;13.80;12.20;8.80
49343;PMS5003;35210;41.606;-87.602;2024-02-21T07:15:29;13.80;10.80;7.40
49343;PMS5003;35210;41.606;-87.602;2024-02-21T07:17:58;14.40;13.20;9.40
49343;PMS5003;35210;41.606;-87.602;2024-02-21T07:20:28;14.60;11.80;9.20
49343;PMS5003;35210;41.606;-87.602;2024-02-21T07:22:56;13.40;12.20;9.20
49343;PMS5003;35210;41.606;-87.602;2024-02-21T07:25:24;15.60;11.40;9.00
49343;PMS5003;35210;41.606;-87.602;2024-02-21T07:27:52;15.60;14.20;8.60
49343;PMS5003;35210;41.606;-87.602;2024-02-21T07:30:20;10.60;9.20;7.00
49343;PMS5003;35210;41.606;-87.602;2024-02-21T07:32:49;12.00;12.00;8.80
49343;PMS5003;35210;41.606;-87.602;2024-02-21T07:35:18;13.20;13.00;9.60
49343;PMS5003;35210;41.606;-87.602;2024-02-21T07:37:47;11.00;6.20;3.60
49343;PMS5003;35210;41.606;-87.602;2024-02-21T07:40:16;14.60;11.60;7.80
49343;PMS5003;35210;41.606;-87.602;2024-02-21T07:42:44;11.60;10.80;7.40
49343;PMS5003;35210;41.606;-87.602;2024-02-21T07:45:13;13.20;12.80;8.40
49343;PMS5003;35210;41.606;-87.602;2024-02-21T07:47:41;15.00;13.00;9.00
49343;PMS5003;35210;41.606;-87.602;2024-02-21T07:50:09;11.80;10.20;4.80
49343;PMS5003;35210;41.606;-87.602;2024-02-21T07:52:37;9.00;8.80;8.00
49343;PMS5003;35210;41.606;-87.602;2024-02-21T07:55:07;12.60;12.00;9.40
49343;PMS5003;35210;41.606;-87.602;2024-02-21T07:57:37;12.40;10.40;7.80
49343;PMS5003;35210;41.606;-87.602;2024-02-21T08:00:05;12.00;10.40;8.00
49343;PMS5003;35210;41.606;-87.602;2024-02-21T08:02:40;11.60;11.20;9.00
49343;PMS5003;35210;41.606;-87.602;2024-02-21T08:05:09;17.20;12.00;8.60
49343;PMS5003;35210;41.606;-87.602;2024-02-21T08:07:37;15.80;12.80;8.20
49343;PMS5003;35210;41.606;-87.602;2024-02-21T08:10:08;12.20;12.20;9.00
49343;PMS5003;35210;41.606;-87.602;2024-02-21T08:12:36;13.00;10.80;7.20
49343;PMS5003;35210;41.606;-87.602;2024-02-21T08:15:04;15.60;14.40;9.60
49343;PMS5003;35210;41.606;-87.602;2024-02-21T08:17:33;11.60;11.20;7.20
49343;PMS5003;35210;41.606;-87.602;2024-02-21T08:20:01;15.60;13.60;6.80
49343;PMS5003;35210;41.606;-87.602;2024-02-21T08:22:30;16.40;11.80;8.80
49343;PMS5003;35210;41.606;-87.602;2024-02-21T08:24:58;16.00;10.20;6.60
49343;PMS5003;35210;41.606;-87.602;2024-02-21T08:27:28;13.80;12.40;8.80
49343;PMS5003;35210;41.606;-87.602;2024-02-21T08:29:56;16.00;16.00;10.40
49343;PMS5003;35210;41.606;-87.602;2024-02-21T08:32:24;12.40;12.40;9.00
49343;PMS5003;35210;41.606;-87.602;2024-02-21T08:34:53;12.40;11.80;8.00
49343;PMS5003;35210;41.606;-87.602;2024-02-21T08:37:21;14.00;11.40;7.00
49343;PMS5003;35210;41.606;-87.602;2024-02-21T08:39:49;15.20;14.60;8.60
49343;PMS5003;35210;41.606;-87.602;2024-02-21T08:42:17;15.00;13.80;9.00
49343;PMS5003;35210;41.606;-87.602;2024-02-21T08:44:46;12.00;12.00;9.80
49343;PMS5003;35210;41.606;-87.602;2024-02-21T08:47:14;19.60;16.80;11.20
49343;PMS5003;35210;41.606;-87.602;2024-02-21T08:49:42;18.80;11.40;9.60
49343;PMS5003;35210;41.606;-87.602;2024-02-21T08:52:10;19.80;14.60;10.60
49343;PMS5003;35210;41.606;-87.602;2024-02-21T08:54:38;12.40;12.20;8.20
49343;PMS5003;35210;41.606;-87.602;2024-02-21T08:57:07;14.80;12.80;9.00
49343;PMS5003;35210;41.606;-87.602;2024-02-21T08:59:35;18.20;17.60;12.60
49343;PMS5003;35210;41.606;-87.602;2024-02-21T09:02:04;16.20;16.20;10.00
49343;PMS5003;35210;41.606;-87.602;2024-02-21T09:04:32;18.00;16.20;9.80
49343;PMS5003;35210;41.606;-87.602;2024-02-21T09:07:01;16.80;13.00;9.40
49343;PMS5003;35210;41.606;-87.602;2024-02-21T09:09:29;15.80;15.00;10.80
49343;PMS5003;35210;41.606;-87.602;2024-02-21T09:11:58;20.00;14.20;10.80
49343;PMS5003;35210;41.606;-87.602;2024-02-21T09:14:31;18.60;17.40;10.40
49343;PMS5003;35210;41.606;-87.602;2024-02-21T09:16:59;14.60;13.80;9.80
49343;PMS5003;35210;41.606;-87.602;2024-02-21T09:19:29;17.20;15.80;10.60
49343;PMS5003;35210;41.606;-87.602;2024-02-21T09:21:57;17.40;17.00;11.40
49343;PMS5003;35210;41.606;-87.602;2024-02-21T09:24:25;16.40;14.60;10.80
49343;PMS5003;35210;41.606;-87.602;2024-02-21T09:26:53;16.20;16.20;10.20
49343;PMS5003;35210;41.606;-87.602;2024-02-21T09:29:21;17.00;16.40;11.40
49343;PMS5003;35210;41.606;-87.602;2024-02-21T09:31:49;13.80;13.80;10.20
49343;PMS5003;35210;41.606;-87.602;2024-02-21T09:34:17;11.60;9.80;7.60
49343;PMS5003;35210;41.606;-87.602;2024-02-21T09:36:47;16.60;16.60;11.00
49343;PMS5003;35210;41.606;-87.602;2024-02-21T09:39:15;17.00;15.80;11.20
49343;PMS5003;35210;41.606;-87.602;2024-02-21T09:41:45;19.00;15.20;10.00
49343;PMS5003;35210;41.606;-87.602;2024-02-21T09:44:18;14.20;14.20;9.20
49343;PMS5003;35210;41.606;-87.602;2024-02-21T09:46:49;20.80;18.20;11.80
49343;PMS5003;35210;41.606;-87.602;2024-02-21T09:49:26;19.60;14.60;10.60
49343;PMS5003;35210;41.606;-87.602;2024-02-21T09:52:01;17.80;14.60;10.60
49343;PMS5003;35210;41.606;-87.602;2024-02-21T09:54:32;17.20;12.20;10.00
49343;PMS5003;35210;41.606;-87.602;2024-02-21T09:57:00;16.40;15.60;10.00
49343;PMS5003;35210;41.606;-87.602;2024-02-21T09:59:32;20.80;17.00;11.00
49343;PMS5003;35210;41.606;-87.602;2024-02-21T10:02:01;17.40;16.00;11.00
49343;PMS5003;35210;41.606;-87.602;2024-02-21T10:04:30;17.60;15.40;12.80
49343;PMS5003;35210;41.606;-87.602;2024-02-21T10:07:00;20.40;17.20;11.20
49343;PMS5003;35210;41.606;-87.602;2024-02-21T10:09:29;19.60;19.00;12.00
49343;PMS5003;35210;41.606;-87.602;2024-02-21T10:12:07;23.00;22.80;14.40
49343;PMS5003;35210;41.606;-87.602;2024-02-21T10:14:36;18.80;18.00;12.20
49343;PMS5003;35210;41.606;-87.602;2024-02-21T10:17:04;14.60;14.60;12.20
49343;PMS5003;35210;41.606;-87.602;2024-02-21T10:19:34;20.00;17.20;12.80
49343;PMS5003;35210;41.606;-87.602;2024-02-21T10:22:05;18.40;18.40;12.40
49343;PMS5003;35210;41.606;-87.602;2024-02-21T10:24:36;18.60;17.20;12.60
49343;PMS5003;35210;41.606;-87.602;2024-02-21T10:27:06;18.80;15.40;9.80
49343;PMS5003;35210;41.606;-87.602;2024-02-21T10:29:36;22.60;19.00;13.20
49343;PMS5003;35210;41.606;-87.602;2024-02-21T10:32:05;19.00;19.00;14.60
49343;PMS5003;35210;41.606;-87.602;2024-02-21T10:34:34;22.80;20.20;13.20
49343;PMS5003;35210;41.606;-87.602;2024-02-21T10:37:05;23.20;19.80;12.20
49343;PMS5003;35210;41.606;-87.602;2024-02-21T10:39:34;23.00;21.20;14.80
49343;PMS5003;35210;41.606;-87.602;2024-02-21T10:42:03;23.80;20.80;14.00
49343;PMS5003;35210;41.606;-87.602;2024-02-21T10:44:33;27.60;22.00;15.20
49343;PMS5003;35210;41.606;-87.602;2024-02-21T10:47:05;23.40;22.00;16.80
49343;PMS5003;35210;41.606;-87.602;2024-02-21T10:49:36;22.80;20.00;15.00
49343;PMS5003;35210;41.606;-87.602;2024-02-21T10:52:13;22.20;19.80;14.80
49343;PMS5003;35210;41.606;-87.602;2024-02-21T10:54:44;19.20;17.60;12.40
49343;PMS5003;35210;41.606;-87.602;2024-02-21T10:57:22;24.20;21.60;16.40
49343;PMS5003;35210;41.606;-87.602;2024-02-21T10:59:53;27.60;23.40;15.80
49343;PMS5003;35210;41.606;-87.602;2024-02-21T11:02:22;22.60;18.80;16.00
49343;PMS5003;35210;41.606;-87.602;2024-02-21T11:04:51;27.80;25.00;16.40
49343;PMS5003;35210;41.606;-87.602;2024-02-21T11:07:23;23.40;18.20;13.40
49343;PMS5003;35210;41.606;-87.602;2024-02-21T11:09:52;32.20;28.80;17.00
49343;PMS5003;35210;41.606;-87.602;2024-02-21T11:12:22;27.20;23.20;14.00
49343;PMS5003;35210;41.606;-87.602;2024-02-21T11:14:53;26.80;24.80;16.00
49343;PMS5003;35210;41.606;-87.602;2024-02-21T11:17:31;23.20;19.80;12.00
49343;PMS5003;35210;41.606;-87.602;2024-02-21T11:20:10;26.00;24.20;16.00
49343;PMS5003;35210;41.606;-87.602;2024-02-21T11:22:43;28.40;24.40;17.40
49343;PMS5003;35210;41.606;-87.602;2024-02-21T11:25:11;29.00;27.40;20.00
49343;PMS5003;35210;41.606;-87.602;2024-02-21T11:27:39;24.20;22.80;17.40
49343;PMS5003;35210;41.606;-87.602;2024-02-21T11:30:13;28.40;25.40;19.00
49343;PMS5003;35210;41.606;-87.602;2024-02-21T11:32:43;26.00;23.20;15.80
49343;PMS5003;35210;41.606;-87.602;2024-02-21T11:35:18;20.80;20.80;14.80
49343;PMS5003;35210;41.606;-87.602;2024-02-21T11:37:48;26.80;26.80;20.00
49343;PMS5003;35210;41.606;-87.602;2024-02-21T11:40:16;21.80;19.40;14.40
49343;PMS5003;35210;41.606;-87.602;2024-02-21T11:42:45;26.40;24.80;15.20
49343;PMS5003;35210;41.606;-87.602;2024-02-21T11:45:14;30.00;28.40;20.00
49343;PMS5003;35210;41.606;-87.602;2024-02-21T11:47:43;24.60;22.00;17.60
49343;PMS5003;35210;41.606;-87.602;2024-02-21T11:50:12;30.00;27.60;18.60
49343;PMS5003;35210;41.606;-87.602;2024-02-21T11:52:40;32.40;27.60;17.00
49343;PMS5003;35210;41.606;-87.602;2024-02-21T11:55:10;33.80;29.40;21.20
49343;PMS5003;35210;41.606;-87.602;2024-02-21T11:57:37;31.40;27.20;19.00
49343;PMS5003;35210;41.606;-87.602;2024-02-21T12:00:14;30.40;27.40;20.60
49343;PMS5003;35210;41.606;-87.602;2024-02-21T12:02:45;24.80;24.20;18.20
49343;PMS5003;35210;41.606;-87.602;2024-02-21T12:05:14;35.80;30.60;20.20
49343;PMS5003;35210;41.606;-87.602;2024-02-21T12:07:42;30.40;26.40;17.80
49343;PMS5003;35210;41.606;-87.602;2024-02-21T12:10:12;35.20;28.40;18.60
49343;PMS5003;35210;41.606;-87.602;2024-02-21T12:12:40;32.80;27.20;19.20
49343;PMS5003;35210;41.606;-87.602;2024-02-21T12:15:08;27.20;21.40;16.00
49343;PMS5003;35210;41.606;-87.602;2024-02-21T12:17:37;27.80;23.80;17.20
49343;PMS5003;35210;41.606;-87.602;2024-02-21T12:20:07;29.40;27.60;19.00
49343;PMS5003;35210;41.606;-87.602;2024-02-21T12:22:37;30.60;27.20;18.40
49343;PMS5003;35210;41.606;-87.602;2024-02-21T12:25:07;29.20;26.00;16.00
49343;PMS5003;35210;41.606;-87.602;2024-02-21T12:27:45;28.00;21.40;13.40
49343;PMS5003;35210;41.606;-87.602;2024-02-21T12:30:14;28.20;24.60;15.40
49343;PMS5003;35210;41.606;-87.602;2024-02-21T12:32:42;22.40;22.40;17.20
49343;PMS5003;35210;41.606;-87.602;2024-02-21T12:35:10;25.60;22.00;17.80
49343;PMS5003;35210;41.606;-87.602;2024-02-21T12:37:40;30.20;24.60;18.80
49343;PMS5003;35210;41.606;-87.602;2024-02-21T12:40:08;32.60;28.80;19.60
49343;PMS5003;35210;41.606;-87.602;2024-02-21T12:42:40;29.00;26.80;17.20
49343;PMS5003;35210;41.606;-87.602;2024-02-21T12:45:08;33.60;26.80;18.80
49343;PMS5003;35210;41.606;-87.602;2024-02-21T12:47:37;26.40;23.40;17.00
49343;PMS5003;35210;41.606;-87.602;2024-02-21T12:50:05;35.00;31.20;19.20
49343;PMS5003;35210;41.606;-87.602;2024-02-21T12:52:34;28.20;28.20;19.40
49343;PMS5003;35210;41.606;-87.602;2024-02-21T12:55:02;32.80;30.00;21.60
49343;PMS5003;35210;41.606;-87.602;2024-02-21T12:57:31;32.60;27.80;21.80
49343;PMS5003;35210;41.606;-87.602;2024-02-21T13:00:00;31.60;28.60;21.20
49343;PMS5003;35210;41.606;-87.602;2024-02-21T13:02:29;32.20;31.00;21.40
49343;PMS5003;35210;41.606;-87.602;2024-02-21T13:04:57;23.80;21.60;14.60
49343;PMS5003;35210;41.606;-87.602;2024-02-21T13:07:25;27.80;26.80;15.20
49343;PMS5003;35210;41.606;-87.602;2024-02-21T13:09:54;29.20;25.80;19.40
49343;PMS5003;35210;41.606;-87.602;2024-02-21T13:12:22;36.60;32.00;20.80
49343;PMS5003;35210;41.606;-87.602;2024-02-21T13:14:51;27.60;27.00;19.80
49343;PMS5003;35210;41.606;-87.602;2024-02-21T13:17:21;30.60;30.20;20.20
49343;PMS5003;35210;41.606;-87.602;2024-02-21T13:19:49;34.20;31.00;20.00
49343;PMS5003;35210;41.606;-87.602;2024-02-21T13:22:17;36.80;29.80;19.40
49343;PMS5003;35210;41.606;-87.602;2024-02-21T13:24:47;36.40;32.40;22.40
49343;PMS5003;35210;41.606;-87.602;2024-02-21T13:27:15;36.20;34.60;22.40
49343;PMS5003;35210;41.606;-87.602;2024-02-21T13:29:44;32.80;29.40;19.40
49343;PMS5003;35210;41.606;-87.602;2024-02-21T13:32:12;36.00;34.60;23.00
49343;PMS5003;35210;41.606;-87.602;2024-02-21T13:34:42;36.80;31.40;22.00
49343;PMS5003;35210;41.606;-87.602;2024-02-21T13:37:10;40.00;33.00;22.20